• Join FlightAware (Why Join?)
  • Login
  • US Flag 
09:44PM EDT


 

Airport Tracker/Info


-or-


 

Live Flight TrackerFlight Track Log ✈ RPA3253 ✈ 21-Jun-2013 ✈ KCLT - KMSY

Flight Track Log - Related Links

Times and Time Zones

All times are in EDT time to prevent confusion due to time zone crossing. See the RPA3253 flight status page for this flight to view local times or setup timezone preferences in your user account.

Time Position Orientation Groundspeed Altitude Reporting Facility
EDT Latitude Longitude Course Direction KTS MPH feet Rate Location/Type
10:34PM 35.2331 -80.9594 251° West 157 181 1,700  Level Atlanta Center
10:35PM 35.2608 -80.9764 334° Northwest 182 209 2,600 1,860 Climbing Atlanta Center
10:36PM 35.2833 -81.0492 291° West 276 318 4,800 2,580 Climbing Atlanta Center
10:37PM 35.2772 -81.1361 265° West 302 348 7,700 3,000 Climbing Atlanta Center
10:38PM 35.2206 -81.2117 227° Southwest 325 374 10,800 2,220 Climbing Atlanta Center
10:39PM 35.1078 -81.2772 192° South  Level FlightAware Approximate
10:39PM 35.1381 -81.2628 207° Southwest 307 353 12,400  Level Atlanta Center
10:40PM 35.0579 -81.3725 251° West  Level FlightAware Approximate
10:40PM 35.0750 -81.3333 222° Southwest 332 382 14,600  Level Atlanta Center
10:41PM 35.0381 -81.4564 250° West 365 420 16,300 1,680 Climbing Atlanta Center
10:42PM 35.0008 -81.5817 250° West 388 447 18,000 1,740 Climbing Atlanta Center
10:43PM 34.9617 -81.7097 250° West 406 467 19,800 1,620 Climbing Atlanta Center
10:44PM 34.9161 -81.8400 247° West 412 474 21,300 1,500 Climbing Atlanta Center
10:45PM 34.8492 -81.9533 234° Southwest 424 488 22,900 1,440 Climbing Atlanta Center
10:46PM 34.7803 -82.0739 235° Southwest 429 494 24,200 1,260 Climbing Atlanta Center
10:47PM 34.7092 -82.1967 235° Southwest 441 507 25,500 1,200 Climbing Atlanta Center
10:48PM 34.6400 -82.3194 236° Southwest 446 513 26,700 1,020 Climbing Atlanta Center
10:49PM 34.5686 -82.4469 236° Southwest 456 525 27,600 1,020 Climbing Atlanta Center
10:50PM 34.4869 -82.5872 235° Southwest 456 525 28,800 1,020 Climbing Atlanta Center
10:51PM 34.4111 -82.7144 234° Southwest 465 535 29,700 1,200 Climbing Atlanta Center
10:52PM 34.3394 -82.8364 235° Southwest 460 529 31,200 1,080 Climbing Atlanta Center
10:53PM 34.2694 -82.9578 235° Southwest 455 524 31,900 900 Climbing Atlanta Center
10:54PM 34.1956 -83.0844 235° Southwest 455 524 33,000 1,020 Climbing Atlanta Center
10:55PM 34.1275 -83.2031 235° Southwest 449 517 34,000 900 Climbing Atlanta Center
10:56PM 34.0592 -83.3192 235° Southwest 449 517 34,800 660 Climbing Atlanta Center
10:57PM 33.9889 -83.4375 234° Southwest 444 511 35,400 600 Climbing Atlanta Center
10:58PM 33.9186 -83.5556 234° Southwest 437 503 36,000 300 Climbing Atlanta Center
10:59PM 33.8564 -83.6586 234° Southwest 437 503 36,000  Level Atlanta Center
11:00PM 33.7878 -83.7764 235° Southwest 432 497 36,000  Level Atlanta Center
11:01PM 33.7169 -83.8914 234° Southwest 432 497 36,000  Level Atlanta Center
11:02PM 33.6461 -84.0064 234° Southwest 432 497 36,000  Level Atlanta Center
11:03PM 33.5750 -84.1211 233° Southwest 432 497 36,000  Level Atlanta Center
11:05PM 33.4222 -84.3622 233° Southwest 437 503 36,000  Level Atlanta Center
11:06PM 33.3489 -84.4742 232° Southwest 437 503 36,000  Level Atlanta Center
11:07PM 33.2753 -84.5906 233° Southwest 437 503 36,000  Level Atlanta Center
11:08PM 33.2039 -84.7042 233° Southwest 437 503 36,000  Level Atlanta Center
11:09PM 33.1322 -84.8178 233° Southwest 437 503 36,000  Level Atlanta Center
11:10PM 33.0647 -84.9211 232° Southwest 437 503 36,000  Level Atlanta Center
11:11PM 32.9908 -85.0344 232° Southwest 437 503 36,000  Level Atlanta Center
11:12PM 32.9189 -85.1525 234° Southwest 443 510 36,000  Level Atlanta Center
11:13PM 32.8428 -85.2578 229° Southwest 438 504 36,000  Level Atlanta Center
11:14PM 32.7683 -85.3703 232° Southwest 438 504 36,000  Level Atlanta Center
11:15PM 32.6942 -85.4853 233° Southwest 444 511 36,000  Level Atlanta Center
11:16PM 32.6175 -85.6000 232° Southwest 444 511 36,000  Level Atlanta Center
11:17PM 32.5408 -85.7144 232° Southwest 449 517 36,000  Level Atlanta Center
11:18PM 32.4536 -85.8456 232° Southwest 461 531 36,000  Level Atlanta Center
11:19PM 32.3744 -85.9594 231° Southwest 460 529 36,000  Level Atlanta Center
11:20PM 32.3017 -86.0736 233° Southwest 455 524 36,000  Level Atlanta Center
11:21PM 32.2419 -86.1631 232° Southwest 449 517 36,000  Level Atlanta Center
11:22PM 32.1667 -86.2889 235° Southwest 444 511 36,000  Level Atlanta Center
11:23PM 32.0872 -86.4019 230° Southwest 454 522 36,000  Level Atlanta Center
11:24PM 32.0097 -86.5150 231° Southwest 449 517 36,000  Level Atlanta Center
11:25PM 31.9217 -86.6375 230° Southwest 454 522 36,000  Level Atlanta Center
11:26PM 31.8442 -86.7525 232° Southwest 454 522 36,000  Level Atlanta Center
11:27PM 31.7686 -86.8650 232° Southwest 449 517 36,000  Level Atlanta Center
11:29PM 31.6078 -87.0958 231° Southwest 439 505 36,000  Level Houston Center
11:30PM 31.5311 -87.2061 231° Southwest 438 504 36,000  Level Houston Center
11:31PM 31.4553 -87.3172 231° Southwest 438 504 36,000  Level Houston Center
11:32PM 31.3783 -87.4281 231° Southwest 439 505 36,000  Level Houston Center
11:33PM 31.3006 -87.5408 231° Southwest 444 511 36,000  Level Houston Center
11:34PM 31.2353 -87.6606 237° Southwest 438 504 36,000  Level Houston Center
11:35PM 31.1692 -87.7908 239° Southwest 436 502 36,000  Level Houston Center
11:36PM 31.1078 -87.9131 240° Southwest 438 504 36,000  Level Houston Center
11:37PM 31.0450 -88.0356 239° Southwest 440 506 36,000  Level Houston Center
11:38PM 30.9811 -88.1589 239° Southwest 444 511 36,000  Level Houston Center
11:39PM 30.9186 -88.2828 240° Southwest 445 512 36,000  Level Houston Center
11:40PM 30.8536 -88.4058 238° Southwest 445 512 36,000 -900 Level Houston Center
11:41PM 30.7919 -88.5303 240° Southwest 445 512 34,200 -2,280 Descending Houston Center
11:42PM 30.7336 -88.6622 243° Southwest 446 513 31,500 -2,880 Descending Houston Center
11:43PM 30.6736 -88.7936 242° Southwest 459 528 28,400 -3,060 Descending Houston Center
11:44PM 30.6117 -88.9269 242° Southwest 467 537 25,300 -3,180 Descending Houston Center
11:45PM 30.5575 -89.0494 243° Southwest 442 509 22,000 -3,300 Descending Houston Center
11:46PM 30.5031 -89.1708 243° Southwest 413 475 18,800 -2,940 Descending Houston Center
11:47PM 30.4500 -89.2858 242° Southwest 410 472 16,100 -2,700 Descending Houston Center
11:48PM 30.3978 -89.3967 241° Southwest 397 457 13,300 -2,520 Descending Houston Center
11:49PM 30.3400 -89.5231 242° Southwest 375 432 11,000 -1,200 Descending Houston Center
11:50PM 30.2897 -89.6281 241° Southwest 369 425 10,900 -300 Descending Houston Center
11:51PM 30.2503 -89.7128 242° Southwest 367 422 10,400 -840 Descending Houston Center
11:52PM 30.2078 -89.8031 241° Southwest 315 362 9,300 -1,440 Descending Houston Center
11:53PM 30.1683 -89.8886 242° Southwest 302 348 7,600 -1,680 Descending Houston Center
11:54PM 30.1297 -89.9722 242° Southwest 296 341 5,900 -1,680 Descending Houston Center
11:55PM 30.1261 -90.0633 267° West 283 326 4,300 -1,020 Descending Houston Center
11:56PM 30.1278 -90.1553 271° West 284 327 3,900 -240 Descending Houston Center
11:58PM 30.1267 -90.2608 269° West 277 319 3,900  Level Houston Center
11:59PM 30.1261 -90.3294 269° West 239 275 3,900  Level Houston Center
12:00AM 30.1244 -90.3892 268° West 201 231 3,900 -300 Level Houston Center
12:01AM 30.1244 -90.4511 270° West 197 227 3,300 -660 Descending Houston Center
12:02AM 30.0750 -90.4661 195° South 191 220 2,600 -720 Descending Houston Center
12:03AM 30.0400 -90.4331 141° Southeast 179 206 1,900 -540 Descending Houston Center
12:04AM 30.0172 -90.3722 113° Southeast 169 194 1,500 -540 Descending Houston Center
12:05AM 30.0078 -90.3319 105° East 144 166 800 -600 Descending Houston Center
12:06AM 30.0006 -90.3011 105° East 155 178 400 -480 Descending Houston Center